KGRK - Killeen-Ft Hood Rgnl, TX, US

Issued at 0800 UTC 16 Jul 2019
Updated at 1202 UTC 16 Jul 2019
Potential Impact None Slight Moderate High
Time1058Z 16/13Z 16/14Z 16/15Z 16/16Z 16/17Z 16/18Z 16/19Z 16/20Z 16/21Z 16/22Z 16/23Z 17/00Z 17/01Z>>
Type OBS PRVL PRVL PRVL PRVL PRVL PRVL PRVL PRVL PRVL PRVL PRVL PRVL PRVL
VIS 10 >6 >6 >6 >6 >6 >6 >6 >6 >6 >6 >6 >6 >6
CIG -- -- -- -- -- -- -- -- -- -- -- -- -- --
Cover CLR FEW SKC SKC SKC SKC SKC SKC SKC SKC SKC SKC FEW FEW
FltCat VFR VFR VFR VFR VFR VFR VFR VFR VFR VFR VFR VFR VFR VFR
WX -- -- -- -- -- -- -- -- -- -- -- -- -- --
WDir 170 140 140 140 140 140 140 140 140 140 140 140 160 160
WSpd 8 9 12 12 12 12 12 12 12 12 12 12 9 9
WGst -- -- -- -- -- -- -- -- -- -- -- -- -- --
Raw TAF
TAF KGRK 160800Z 1608/1714 14009KT 9999 FEW060 QNH2991INS
  BECMG 1614/1615 14012KT 9999 SKC QNH3001INS
  BECMG 1700/1701 16009KT 9999 FEW050 QNH2990INS
  BECMG 1711/1712 17009KT 9999 BKN010 QNH3000INS
  BECMG 1713/1714 18012G18KT 9999 SCT020 QNH3001INS TX36/1621Z TN24/1612Z


Raw METAR
KGRK 161058Z AUTO 17008KT 10SM CLR 24/22 A2996 RMK AO2 SLP133 T02440221
KGRK 160958Z AUTO 17010KT 10SM CLR 25/22 A2994 RMK AO2 SLP126 T02500224

METAR Board
For situational awareness. Not to be used for flight planning purposes.